USPPURSS

Guest
Details From USPP - Bolshoye Savino
To URSS - Sochi
Flight Number -
Tags Generated
Created
Modified
Stats Distance 1,059 nm / 1,961 km
Max Altitude 0 ft / 0 m
Waypoints 5
Social Downloads 1
Likes 0
Share VATSIM

Download

Looking for another format? Having issues loading an existing format? Contact us
Advertisement - Login to hide

Notes

Generated

Route

USPP RUMAT SOMRO SO URSS

ID Type Via Altitude Latitude Longitude Leg Dist Tot Dist Heading (true) Name
O USPP APT - 0 ft / 0 m 57.90452˚ 56.00177˚ - 0 nm - -
RUMAT FIX - 0 ft / 0 m 54.83333˚ 51.35000˚ 240 nm 240 nm 222° / 218° -
SOMRO FIX - 0 ft / 0 m 47.10000˚ 43.10000˚ 558 nm 799 nm 217° / 211° -
SO NDB - 0 ft / 0 m 43.43500˚ 39.91000˚ 258 nm 1057 nm 213° / 210° SOCHI NDB
O URSS APT - 0 ft / 0 m 43.43576˚ 39.94578˚ 1 nm 1058 nm 88° / 88° Sochi

Altitude Profile

Advertisement - Login to hide

Weather


0- 5 10 15 20 25 30 35+ Temperature / ° C

Clouds and Precipitation
Forecast for 2018-05-28 00:00 UTC. Updated 6 hours ago

Ground ~20,000 ft ~40,000 ft Winds

USPP

Details ICAO USPP (PEE)
Name BOLSHOYE SAVINO
Region Russia
Timezone Asia/Yekaterinburg (UTC+5.0)
Stats Elevation 404 ft / 123 m (AMSL)
Location 57.914517° 56.021214°
Runways 1
Magnetic Variation 15.632° E

METAR

Not found

TAF

TAF USPP 280158Z 2803/2903 35006MPS 9999 BKN020 BKN100 TEMPO 2806/2815 33012MPS -SHRA BKN011 BKN020CB

Decode

Departure Runways

ID Width Length Bearing (true) Bearing (mag) Surface Threshold Offset Overrun Length
03 161 ft / 49 m 10,493 ft / 3,198 m 45.91° 30.28° Concrete 0 ft / 0 m 165 ft / 50 m
21 161 ft / 49 m 10,493 ft / 3,198 m 225.95° 210.32° Concrete 0 ft / 0 m 155 ft / 47 m

URSS

Details ICAO URSS (AER)
Name Sochi
Region Russia
Timezone Europe/Moscow (UTC+3.0)
Stats Elevation 89 ft / 27 m (AMSL)
Location 43.444749° 39.947302°
Runways 2
Magnetic Variation 7.003° E

METAR

Not found

TAF

TAF URSS 280156Z 2803/2903 06005MPS 9999 SCT030CB SCT100 BECMG 2806/2807 28005G10MPS TEMPO 2806/2809 24005G10MPS TEMPO 2809/2816 -TSRA BKN030CB BKN100 BECMG 2816/2818 05006MPS

Decode

Destination Runways

ID Width Length Bearing (true) Bearing (mag) Surface Threshold Offset Overrun Length
02 161 ft / 49 m 7,267 ft / 2,215 m 28.98° 21.98° Concrete 0 ft / 0 m 0 ft / 0 m
06 164 ft / 50 m 9,531 ft / 2,905 m 64.90° 57.90° Concrete 262 ft / 80 m 0 ft / 0 m
20 161 ft / 49 m 7,267 ft / 2,215 m 208.99° 201.99° Concrete 0 ft / 0 m 0 ft / 0 m
24 164 ft / 50 m 9,531 ft / 2,905 m 244.92° 237.92° Concrete 0 ft / 0 m 0 ft / 0 m

Approach Navaids

Runway Type Ident Frequency Range Bearing (true) Bearing (mag) Slope Elevation
02 Localiser IAD 110.50 MHz 18 nm / 33 km 30.95° 23.94° - 89 ft / 27 m (AMSL)
02 Glidescope IAD 110.50 MHz 10 nm / 19 km 28.98° 21.98° 2.80° 89 ft / 27 m (AMSL)
06 Localiser ISO 111.10 MHz 18 nm / 33 km 65.82° 58.82° - 89 ft / 27 m (AMSL)
06 Glidescope ISO 111.10 MHz 10 nm / 19 km 64.91° 57.91° 2.80° 89 ft / 27 m (AMSL)

Popular Alternatives